createdAt,value
2023-03-05T00:01:10.861Z,100888.15
2023-03-05T00:04:02.861Z,100882.91
2023-03-05T00:06:53.885Z,100881.52
2023-03-05T00:09:44.855Z,100881.34
2023-03-05T00:12:24.774Z,100883.27
2023-03-05T00:15:14.909Z,100888.17
2023-03-05T00:17:54.208Z,100889.77
2023-03-05T00:20:37.229Z,100884.05
2023-03-05T00:23:28.204Z,100881.25
2023-03-05T00:26:10.348Z,100878.65
2023-03-05T00:28:52.891Z,100874.67
2023-03-05T00:31:44.493Z,100872.93
2023-03-05T00:34:33.759Z,100871.55
2023-03-05T00:37:24.807Z,100868.96
2023-03-05T00:40:16.565Z,100865.30
2023-03-05T00:43:08.614Z,100868.11
2023-03-05T00:45:59.549Z,100863.63
2023-03-05T00:48:50.549Z,100861.90
2023-03-05T00:51:41.773Z,100858.79
2023-03-05T00:54:32.672Z,100856.04
2023-03-05T00:57:23.603Z,100852.90
2023-03-05T01:00:15.637Z,100848.04
2023-03-05T01:02:56.624Z,100845.79
2023-03-05T01:05:38.574Z,100839.03
2023-03-05T01:08:29.632Z,100836.25
2023-03-05T01:11:20.620Z,100840.09
2023-03-05T01:14:11.514Z,100836.64
2023-03-05T01:16:52.329Z,100837.55
2023-03-05T01:19:23.387Z,100835.11
2023-03-05T01:22:13.938Z,100830.83
2023-03-05T01:24:47.479Z,100827.89
2023-03-05T01:27:28.266Z,100826.02
2023-03-05T01:30:19.387Z,100821.86
2023-03-05T01:33:10.218Z,100818.79
2023-03-05T01:36:01.221Z,100818.62
2023-03-05T01:38:52.399Z,100813.42
2023-03-05T01:41:43.476Z,100816.09
2023-03-05T01:44:30.895Z,100811.26
2023-03-05T01:47:21.103Z,100807.27
2023-03-05T01:50:15.671Z,100810.98
2023-03-05T01:53:08.589Z,100807.52
2023-03-05T01:55:55.921Z,100804.08
2023-03-05T01:58:28.570Z,100801.49
2023-03-05T02:01:19.798Z,100801.67
2023-03-05T02:03:51.166Z,100799.08
2023-03-05T02:06:44.806Z,100797.36
2023-03-05T02:09:38.420Z,100797.40
2023-03-05T02:12:23.924Z,100797.40
2023-03-05T02:14:59.558Z,100796.36
2023-03-05T02:17:31.657Z,100796.55
2023-03-05T02:20:23.564Z,100791.88
2023-03-05T02:23:14.575Z,100791.73
2023-03-05T02:26:05.845Z,100786.71
2023-03-05T02:29:00.822Z,100784.12
2023-03-05T02:31:45.796Z,100782.74
2023-03-05T02:34:36.843Z,100782.56
2023-03-05T02:37:27.669Z,100775.83
2023-03-05T02:40:18.676Z,100776.54
2023-03-05T02:43:09.926Z,100773.58
2023-03-05T02:45:49.543Z,100773.95
2023-03-05T02:48:34.322Z,100773.95
2023-03-05T02:51:15.414Z,100768.91
2023-03-05T02:54:06.601Z,100766.48
2023-03-05T02:56:57.544Z,100763.36
2023-03-05T02:59:48.441Z,100761.29
2023-03-05T03:02:21.883Z,100756.76
2023-03-05T03:05:13.351Z,100752.95
2023-03-05T03:07:56.858Z,100753.81
2023-03-05T03:10:32.007Z,100754.16
2023-03-05T03:13:02.938Z,100749.14
2023-03-05T03:15:47.360Z,100738.56
2023-03-05T03:18:38.460Z,100741.18
2023-03-05T03:21:29.421Z,100737.04
2023-03-05T03:24:10.329Z,100734.61
2023-03-05T03:27:01.411Z,100733.23
2023-03-05T03:29:52.337Z,100733.41
2023-03-05T03:32:33.988Z,100732.20
2023-03-05T03:35:23.368Z,100727.69
2023-03-05T03:38:07.110Z,100724.73
2023-03-05T03:40:48.976Z,100727.70
2023-03-05T03:43:40.370Z,100720.58
2023-03-05T03:46:31.347Z,100723.36
2023-03-05T03:49:19.422Z,100721.78
2023-03-05T03:52:10.530Z,100718.14
2023-03-05T03:55:02.157Z,100716.77
2023-03-05T04:00:47.468Z,100707.73
2023-03-05T04:03:38.572Z,100705.15
2023-03-05T04:06:17.987Z,100706.55
2023-03-05T04:09:09.573Z,100702.56
2023-03-05T04:11:58.860Z,100696.30
2023-03-05T04:14:41.236Z,100693.70
2023-03-05T04:17:32.271Z,100687.77
2023-03-05T04:20:23.270Z,100683.44
2023-03-05T04:23:14.137Z,100682.73
2023-03-05T04:25:59.080Z,100677.17
2023-03-05T04:28:50.693Z,100677.17
2023-03-05T04:31:41.670Z,100675.96
2023-03-05T04:34:33.001Z,100674.23
2023-03-05T04:37:24.230Z,100673.02
2023-03-05T04:40:16.214Z,100671.96
2023-03-05T04:43:08.018Z,100674.75
2023-03-05T04:45:59.010Z,100677.70
2023-03-05T04:48:40.578Z,100682.55
2023-03-05T04:51:31.451Z,100683.96
2023-03-05T04:54:22.409Z,100683.25
2023-03-05T04:57:13.640Z,100684.13
2023-03-05T05:00:06.976Z,100684.65
2023-03-05T05:02:50.322Z,100681.00
2023-03-05T05:05:41.339Z,100679.95
2023-03-05T05:08:32.655Z,100678.20
2023-03-05T05:11:05.770Z,100676.64
2023-03-05T05:13:56.648Z,100680.29
2023-03-05T05:16:47.664Z,100676.83
2023-03-05T05:19:38.971Z,100682.23
2023-03-05T05:22:30.551Z,100675.77
2023-03-05T05:25:20.446Z,100669.17
2023-03-05T05:28:11.493Z,100670.39
2023-03-05T05:31:07.431Z,100672.81
2023-03-05T05:33:58.868Z,100671.95
2023-03-05T05:36:49.848Z,100673.70
2023-03-05T05:39:21.106Z,100674.58
2023-03-05T05:42:12.064Z,100669.52
2023-03-05T05:45:05.425Z,100667.08
2023-03-05T05:47:36.438Z,100666.40
2023-03-05T05:50:27.799Z,100667.29
2023-03-05T05:53:08.898Z,100665.03
2023-03-05T05:55:59.757Z,100665.34
2023-03-05T05:58:50.575Z,100661.70
2023-03-05T06:01:41.036Z,100660.46
2023-03-05T06:04:31.950Z,100661.85
2023-03-05T06:07:22.953Z,100656.79
2023-03-05T06:10:14.792Z,100655.39
2023-03-05T06:13:06.096Z,100655.02
2023-03-05T06:16:02.238Z,100658.48
2023-03-05T06:18:53.908Z,100656.03
2023-03-05T06:21:27.157Z,100655.15
2023-03-05T06:24:19.473Z,100657.42
2023-03-05T06:27:10.450Z,100656.90
2023-03-05T06:30:02.468Z,100657.25
2023-03-05T06:32:53.289Z,100656.88
2023-03-05T06:35:24.242Z,100658.13
2023-03-05T06:38:15.197Z,100659.16
2023-03-05T06:41:05.825Z,100656.57
2023-03-05T06:43:57.596Z,100657.77
2023-03-05T06:46:39.252Z,100657.60
2023-03-05T06:49:32.245Z,100654.30
2023-03-05T06:52:23.183Z,100654.15
2023-03-05T06:55:15.942Z,100656.41
2023-03-05T06:58:06.872Z,100656.59
2023-03-05T07:04:20.648Z,100654.45
2023-03-05T07:07:13.131Z,100657.19
2023-03-05T07:10:09.896Z,100652.28
2023-03-05T07:13:00.889Z,100650.48
2023-03-05T07:15:52.761Z,100650.43
2023-03-05T07:18:43.778Z,100652.11
2023-03-05T07:21:39.485Z,100652.92
2023-03-05T07:24:20.862Z,100652.87
2023-03-05T07:27:02.286Z,100644.98
2023-03-05T07:29:53.628Z,100647.70
2023-03-05T07:32:44.653Z,100644.87
2023-03-05T07:35:26.553Z,100645.67
2023-03-05T07:38:19.574Z,100646.97
2023-03-05T07:41:12.594Z,100645.64
2023-03-05T07:44:50.496Z,100645.91
2023-03-05T07:47:16.232Z,100646.87
2023-03-05T07:50:06.220Z,100644.70
2023-03-05T07:52:57.124Z,100642.20
2023-03-05T07:55:49.330Z,100644.23
2023-03-05T07:58:42.978Z,100639.27
2023-03-05T08:01:27.597Z,100640.77
2023-03-05T08:04:19.106Z,100640.30
2023-03-05T08:07:10.449Z,100636.90
2023-03-05T08:10:04.963Z,100644.45
2023-03-05T08:12:55.928Z,100637.20
2023-03-05T08:15:47.193Z,100640.73
2023-03-05T08:18:38.158Z,100642.21
2023-03-05T08:21:31.190Z,100642.20
2023-03-05T08:24:21.474Z,100637.11
2023-03-05T08:27:11.363Z,100637.52
2023-03-05T08:30:03.504Z,100636.01
2023-03-05T08:32:55.459Z,100631.55
2023-03-05T08:35:46.646Z,100630.41
2023-03-05T08:38:39.582Z,100628.51
2023-03-05T08:41:31.049Z,100627.94
2023-03-05T08:44:22.199Z,100621.04
2023-03-05T08:47:13.213Z,100621.48
2023-03-05T08:49:44.069Z,100619.23
2023-03-05T08:52:18.467Z,100620.16
2023-03-05T08:54:52.253Z,100620.30
2023-03-05T08:57:41.831Z,100621.14
2023-03-05T09:00:16.710Z,100619.38
2023-03-05T09:03:06.147Z,100619.00
2023-03-05T09:05:39.211Z,100622.16
2023-03-05T09:08:13.508Z,100619.13
2023-03-05T09:11:07.337Z,100621.61
2023-03-05T09:13:58.274Z,100617.95
2023-03-05T09:16:49.297Z,100612.26
2023-03-05T09:19:30.176Z,100609.75
2023-03-05T09:22:10.223Z,100604.63
2023-03-05T09:24:51.128Z,100602.70
2023-03-05T09:27:22.116Z,100599.47
2023-03-05T09:30:15.200Z,100600.30
2023-03-05T09:32:54.748Z,100594.96
2023-03-05T09:35:38.104Z,100592.50
2023-03-05T09:38:12.082Z,100589.89
2023-03-05T09:40:50.026Z,100588.14
2023-03-05T09:43:31.843Z,100586.54
2023-03-05T09:46:14.759Z,100584.00
2023-03-05T09:48:52.909Z,100581.48
2023-03-05T09:51:30.487Z,100582.23
2023-03-05T09:54:05.933Z,100580.34
2023-03-05T09:56:42.701Z,100576.47
2023-03-05T09:59:27.700Z,100573.63
2023-03-05T10:02:12.915Z,100571.89
2023-03-05T10:05:04.569Z,100566.25
2023-03-05T10:07:56.173Z,100562.70
2023-03-05T10:10:35.754Z,100557.93
2023-03-05T10:13:13.027Z,100555.06
2023-03-05T10:15:56.271Z,100548.43
2023-03-05T10:18:36.416Z,100549.42
2023-03-05T10:21:26.837Z,100547.92
2023-03-05T10:24:12.817Z,100542.39
2023-03-05T10:27:09.254Z,100538.18
2023-03-05T10:30:10.799Z,100536.57
2023-03-05T10:32:57.251Z,100534.46
2023-03-05T10:35:54.768Z,100528.97
2023-03-05T10:39:06.485Z,100529.25
2023-03-05T10:41:53.529Z,100526.63
2023-03-05T10:44:42.920Z,100517.50
2023-03-05T10:47:43.618Z,100515.97
2023-03-05T10:50:40.959Z,100516.94
2023-03-05T10:53:28.041Z,100514.59
2023-03-05T10:56:05.330Z,100509.23
2023-03-05T10:58:39.359Z,100506.17
2023-03-05T11:01:26.191Z,100505.04
2023-03-05T11:04:32.293Z,100506.48
2023-03-05T11:07:36.923Z,100502.42
2023-03-05T11:10:18.921Z,100499.23
2023-03-05T11:13:01.242Z,100491.95
2023-03-05T11:16:01.971Z,100488.21
2023-03-05T11:19:12.104Z,100484.10
2023-03-05T11:22:11.143Z,100481.05
2023-03-05T11:24:47.103Z,100474.74
2023-03-05T11:27:34.828Z,100469.95
2023-03-05T11:30:26.613Z,100470.73
2023-03-05T11:33:24.138Z,100465.99
2023-03-05T11:36:27.000Z,100470.96
2023-03-05T11:39:21.304Z,100465.50
2023-03-05T11:42:02.576Z,100460.57
2023-03-05T11:44:42.707Z,100458.41
2023-03-05T11:47:38.474Z,100453.39
2023-03-05T11:50:24.143Z,100453.52
2023-03-05T11:53:02.189Z,100451.09
2023-03-05T11:55:46.996Z,100446.85
2023-03-05T11:58:37.033Z,100451.13
2023-03-05T12:01:16.076Z,100444.70
2023-03-05T12:04:08.783Z,100435.75
2023-03-05T12:07:02.808Z,100433.23
2023-03-05T12:09:47.688Z,100429.80
2023-03-05T12:12:48.511Z,100428.89
2023-03-05T12:15:49.537Z,100419.54
2023-03-05T12:18:38.272Z,100415.27
2023-03-05T12:21:36.673Z,100411.15
2023-03-05T12:24:40.718Z,100413.07
2023-03-05T12:27:39.973Z,100403.41
2023-03-05T12:30:57.733Z,100401.61
2023-03-05T12:33:48.749Z,100397.59
2023-03-05T12:36:41.627Z,100396.98
2023-03-05T12:40:39.515Z,100391.56
2023-03-05T12:43:05.743Z,100389.23
2023-03-05T12:45:45.944Z,100386.98
2023-03-05T12:48:49.196Z,100385.71
2023-03-05T12:51:40.160Z,100379.46
2023-03-05T12:54:34.569Z,100376.16
2023-03-05T12:57:22.659Z,100373.08
2023-03-05T13:00:13.500Z,100375.42
2023-03-05T13:02:47.376Z,100369.98
2023-03-05T13:05:28.221Z,100367.61
2023-03-05T13:08:16.222Z,100370.05
2023-03-05T13:10:56.502Z,100362.52
2023-03-05T13:13:50.436Z,100359.00
2023-03-05T13:16:37.680Z,100353.89
2023-03-05T13:19:22.934Z,100352.55
2023-03-05T13:22:14.431Z,100353.86
2023-03-05T13:25:20.627Z,100352.10
2023-03-05T13:28:15.562Z,100350.47
2023-03-05T13:30:54.856Z,100349.22
2023-03-05T13:33:54.474Z,100348.26
2023-03-05T13:36:29.632Z,100342.52
2023-03-05T13:39:30.375Z,100342.98
2023-03-05T13:42:25.977Z,100338.11
2023-03-05T13:45:24.706Z,100332.52
2023-03-05T13:48:22.730Z,100327.86
2023-03-05T13:51:01.048Z,100325.40
2023-03-05T13:53:54.279Z,100325.05
2023-03-05T13:56:54.984Z,100320.87
2023-03-05T13:59:30.934Z,100320.42
2023-03-05T14:02:20.878Z,100316.97
2023-03-05T14:05:02.132Z,100314.99
2023-03-05T14:07:43.990Z,100311.56
2023-03-05T14:10:38.779Z,100308.79
2023-03-05T14:13:27.133Z,100304.16
2023-03-05T14:16:28.139Z,100303.52
2023-03-05T14:19:34.864Z,100299.83
2023-03-05T14:22:22.626Z,100293.37
2023-03-05T14:24:55.618Z,100290.23
2023-03-05T14:27:50.362Z,100286.28
2023-03-05T14:30:48.446Z,100283.40
2023-03-05T14:33:40.832Z,100283.31
2023-03-05T14:36:33.302Z,100273.77
2023-03-05T14:39:21.825Z,100269.20
2023-03-05T14:42:32.624Z,100268.17
2023-03-05T14:45:36.276Z,100264.77
2023-03-05T14:48:20.902Z,100255.73
2023-03-05T14:51:03.266Z,100249.65
2023-03-05T14:53:47.408Z,100249.95
2023-03-05T14:56:39.455Z,100246.70
2023-03-05T14:59:30.540Z,100240.14
2023-03-05T15:02:24.359Z,100229.39
2023-03-05T15:05:15.456Z,100223.15
2023-03-05T15:08:08.470Z,100217.83
2023-03-05T15:10:42.079Z,100210.91
2023-03-05T15:13:17.280Z,100210.10
2023-03-05T15:16:01.618Z,100206.64
2023-03-05T15:19:17.406Z,100205.34
2023-03-05T15:22:10.559Z,100203.66
2023-03-05T15:24:55.418Z,100196.54
2023-03-05T15:27:47.563Z,100198.13
2023-03-05T15:30:41.912Z,100193.45
2023-03-05T15:33:33.451Z,100189.59
2023-03-05T15:36:23.236Z,100184.45
2023-03-05T15:39:14.526Z,100180.36
2023-03-05T15:42:06.587Z,100168.80
2023-03-05T15:44:56.833Z,100162.14
2023-03-05T15:47:49.403Z,100158.80
2023-03-05T15:50:43.370Z,100159.29
2023-03-05T15:53:23.769Z,100162.91
2023-03-05T15:56:19.403Z,100159.29
2023-03-05T15:59:10.737Z,100154.27
2023-03-05T16:02:02.346Z,100155.13
2023-03-05T16:04:51.756Z,100149.17
2023-03-05T16:07:46.895Z,100148.28
2023-03-05T16:10:41.106Z,100148.58
2023-03-05T16:13:34.859Z,100142.62
2023-03-05T16:16:26.070Z,100134.23
2023-03-05T16:19:12.660Z,100128.00
2023-03-05T16:22:03.903Z,100122.95
2023-03-05T16:24:55.861Z,100123.32
2023-03-05T16:27:32.232Z,100118.49
2023-03-05T16:30:17.501Z,100117.73
2023-03-05T16:33:08.541Z,100120.26
2023-03-05T16:35:48.567Z,100117.89
2023-03-05T16:38:39.748Z,100113.95
2023-03-05T16:41:30.865Z,100114.59
2023-03-05T16:44:21.952Z,100109.13
2023-03-05T16:47:12.793Z,100111.11
2023-03-05T16:50:04.022Z,100109.83
2023-03-05T16:52:56.930Z,100107.50
2023-03-05T16:55:30.162Z,100109.16
2023-03-05T16:58:21.197Z,100104.75
2023-03-05T17:01:18.024Z,100102.91
2023-03-05T17:04:09.129Z,100100.93
2023-03-05T17:07:00.315Z,100099.81
2023-03-05T17:09:52.861Z,100097.10
2023-03-05T17:12:32.742Z,100097.00
2023-03-05T17:15:23.788Z,100092.72
2023-03-05T17:18:27.769Z,100094.55
2023-03-05T17:21:18.005Z,100094.46
2023-03-05T17:23:54.721Z,100095.23
2023-03-05T17:26:46.054Z,100093.53
2023-03-05T17:29:38.658Z,100098.52
2023-03-05T17:32:29.778Z,100099.10
2023-03-05T17:35:23.356Z,100101.80
2023-03-05T17:38:13.704Z,100100.48
2023-03-05T17:41:04.822Z,100098.36
2023-03-05T17:43:55.860Z,100098.95
2023-03-05T17:46:46.861Z,100097.27
2023-03-05T17:49:29.631Z,100102.03
2023-03-05T17:52:01.031Z,100101.77
2023-03-05T17:54:44.827Z,100098.34
2023-03-05T17:57:36.051Z,100097.02
2023-03-05T18:00:32.277Z,100093.77
2023-03-05T18:03:23.527Z,100094.45
2023-03-05T18:06:09.164Z,100093.08
2023-03-05T18:08:58.696Z,100092.04
2023-03-05T18:11:50.238Z,100096.38
2023-03-05T18:14:39.681Z,100090.98
2023-03-05T18:17:30.808Z,100087.89
2023-03-05T18:20:29.440Z,100088.11
2023-03-05T18:23:20.515Z,100086.90
2023-03-05T18:26:01.579Z,100083.11
2023-03-05T18:28:52.610Z,100080.02
2023-03-05T18:31:43.658Z,100076.02
2023-03-05T18:34:25.903Z,100070.80
2023-03-05T18:37:17.162Z,100072.40
2023-03-05T18:40:11.090Z,100071.59
2023-03-05T18:43:04.430Z,100066.13
2023-03-05T18:45:57.117Z,100058.89
2023-03-05T18:48:48.988Z,100053.23
2023-03-05T18:51:41.628Z,100047.03
2023-03-05T18:54:23.160Z,100046.23
2023-03-05T18:57:14.500Z,100042.78
2023-03-05T19:00:06.321Z,100042.31
2023-03-05T19:02:58.275Z,100043.77
2023-03-05T19:05:51.566Z,100044.34
2023-03-05T19:08:34.166Z,100045.63
2023-03-05T19:11:21.131Z,100044.80
2023-03-05T19:14:12.104Z,100041.70
2023-03-05T19:16:55.799Z,100039.38
2023-03-05T19:19:36.964Z,100040.73
2023-03-05T19:22:29.713Z,100040.92
2023-03-05T19:25:21.084Z,100040.76
2023-03-05T19:28:13.965Z,100036.42
2023-03-05T19:31:05.212Z,100030.19
2023-03-05T19:33:49.067Z,100029.62
2023-03-05T19:36:40.349Z,100025.40
2023-03-05T19:39:32.127Z,100025.67
2023-03-05T19:42:23.234Z,100024.09
2023-03-05T19:45:15.127Z,100022.20
2023-03-05T19:48:06.705Z,100023.42
2023-03-05T19:50:56.852Z,100020.46
2023-03-05T19:53:48.415Z,100024.77
2023-03-05T19:56:28.035Z,100020.42
2023-03-05T19:59:21.390Z,100016.79
2023-03-05T20:02:18.384Z,100014.55
2023-03-05T20:05:12.637Z,100012.35
2023-03-05T20:08:03.827Z,100007.55
2023-03-05T20:10:47.357Z,100007.27
2023-03-05T20:13:38.203Z,100003.30
2023-03-05T20:16:21.229Z,100000.17
2023-03-05T20:19:07.768Z,99997.90
2023-03-05T20:21:58.971Z,99993.56
2023-03-05T20:24:50.127Z,99993.02
2023-03-05T20:27:32.322Z,99991.52
2023-03-05T20:30:23.574Z,99993.48
2023-03-05T20:33:14.586Z,99992.66
2023-03-05T20:36:06.212Z,99992.71
2023-03-05T20:38:47.573Z,99991.64
2023-03-05T20:41:22.807Z,99988.70
2023-03-05T20:43:54.052Z,99987.44
2023-03-05T20:46:32.578Z,99988.86
2023-03-05T20:49:14.728Z,99987.36
2023-03-05T20:52:06.025Z,99985.69
2023-03-05T20:54:57.186Z,99980.36
2023-03-05T20:57:48.221Z,99977.41
2023-03-05T21:00:40.592Z,99978.10
2023-03-05T21:03:25.665Z,99977.15
2023-03-05T21:06:17.262Z,99973.86
2023-03-05T21:08:51.070Z,99971.81
2023-03-05T21:11:43.630Z,99968.41
2023-03-05T21:14:38.261Z,99963.54
2023-03-05T21:17:19.105Z,99960.95
2023-03-05T21:19:58.674Z,99960.29
2023-03-05T21:22:49.938Z,99955.45
2023-03-05T21:25:27.622Z,99948.77
2023-03-05T21:28:00.291Z,99950.58
2023-03-05T21:30:37.038Z,99943.35
2023-03-05T21:33:10.498Z,99944.83
2023-03-05T21:35:46.621Z,99943.17
2023-03-05T21:38:38.347Z,99942.00
2023-03-05T21:41:20.563Z,99941.41
2023-03-05T21:44:04.247Z,99937.27
2023-03-05T21:46:35.343Z,99933.55
2023-03-05T21:49:06.276Z,99933.40
2023-03-05T21:52:09.350Z,99928.25
2023-03-05T21:55:00.633Z,99923.07
2023-03-05T21:57:52.024Z,99916.50
2023-03-05T22:00:34.261Z,99915.17
2023-03-05T22:03:08.557Z,99913.81
2023-03-05T22:05:39.427Z,99913.33
2023-03-05T22:08:10.355Z,99912.33
2023-03-05T22:10:50.224Z,99910.28
2023-03-05T22:13:33.787Z,99904.77
2023-03-05T22:16:21.237Z,99895.77
2023-03-05T22:19:04.331Z,99889.89
2023-03-05T22:21:35.417Z,99880.68
2023-03-05T22:24:26.735Z,99875.21
2023-03-05T22:26:59.910Z,99877.86
2023-03-05T22:29:35.281Z,99875.80
2023-03-05T22:32:15.300Z,99872.14
2023-03-05T22:34:46.283Z,99867.98
2023-03-05T22:37:37.310Z,99862.77
2023-03-05T22:40:28.329Z,99853.05
2023-03-05T22:43:20.888Z,99848.21
2023-03-05T22:46:11.584Z,99846.67
2023-03-05T22:48:54.338Z,99840.79
2023-03-05T22:51:25.115Z,99840.78
2023-03-05T22:54:16.036Z,99840.59
2023-03-05T22:57:08.662Z,99843.91
2023-03-05T22:59:59.649Z,99839.39
2023-03-05T23:02:30.523Z,99835.02
2023-03-05T23:05:13.738Z,99830.09
2023-03-05T23:08:04.769Z,99821.69
2023-03-05T23:10:45.668Z,99820.65
2023-03-05T23:13:36.683Z,99816.11
2023-03-05T23:16:12.324Z,99812.25
2023-03-05T23:19:03.264Z,99809.82
2023-03-05T23:21:36.252Z,99800.60
2023-03-05T23:24:27.227Z,99798.45
2023-03-05T23:27:09.644Z,99799.80
2023-03-05T23:29:54.534Z,99800.67
2023-03-05T23:32:30.480Z,99796.46
2023-03-05T23:35:14.044Z,99795.54
2023-03-05T23:38:07.987Z,99796.39
2023-03-05T23:41:02.918Z,99795.85
2023-03-05T23:43:53.842Z,99790.30
2023-03-05T23:46:35.715Z,99786.50
2023-03-05T23:49:27.602Z,99784.36
2023-03-05T23:52:18.638Z,99783.18
2023-03-05T23:54:55.032Z,99778.69
2023-03-05T23:57:28.279Z,99778.02
